Time;durP1;ratioP1;P1;durP2;ratioP2;P2;SDS_P1;SDS_P2;PMS_P1;PMS_P2;Temp;Humidity;BMP_temperature;BMP_pressure;BME280_temperature;BME280_humidity;BME280_pressure;Samples;Min_cycle;Max_cycle;Signal;HPM_P1;HPM_P2
2022/03/10 00:00:05;;;;;;;22.35;14.57;;;7.40;49.30;;;;;;5051399;28;20048;-64
2022/03/10 00:02:31;;;;;;;21.88;15.30;;;7.40;49.50;;;;;;5032013;28;20510;-64
2022/03/10 00:04:57;;;;;;;23.40;14.82;;;7.40;49.70;;;;;;5047833;28;20036;-64
2022/03/10 00:07:22;;;;;;;24.25;14.98;;;7.30;49.80;;;;;;5050484;28;20021;-64
2022/03/10 00:09:48;;;;;;;22.98;15.48;;;7.30;49.70;;;;;;5051552;28;20041;-60
2022/03/10 00:12:14;;;;;;;22.58;15.63;;;7.20;49.90;;;;;;5051693;28;20047;-60
2022/03/10 00:14:39;;;;;;;21.13;14.60;;;7.20;50.00;;;;;;5051391;28;20083;-60
2022/03/10 00:17:05;;;;;;;20.23;14.02;;;7.10;50.00;;;;;;5051750;28;20039;-61
2022/03/10 00:19:31;;;;;;;21.08;13.40;;;7.10;50.10;;;;;;5052112;28;20336;-61
2022/03/10 00:21:56;;;;;;;20.13;14.32;;;7.00;50.20;;;;;;5051184;28;20071;-60
2022/03/10 00:24:22;;;;;;;22.55;14.25;;;7.00;50.30;;;;;;5050802;28;20460;-60
2022/03/10 00:26:48;;;;;;;25.38;14.07;;;7.00;50.60;;;;;;5050856;28;20021;-65
2022/03/10 00:29:14;;;;;;;21.15;14.60;;;7.00;50.70;;;;;;5051521;28;20068;-65
2022/03/10 00:31:40;;;;;;;23.48;15.07;;;6.90;50.90;;;;;;5051285;28;20099;-60
2022/03/10 00:34:06;;;;;;;22.30;15.10;;;6.90;50.90;;;;;;5051158;28;20037;-61
2022/03/10 00:36:32;;;;;;;19.70;14.25;;;6.80;51.00;;;;;;5049530;28;20114;-60
2022/03/10 00:38:58;;;;;;;19.85;13.98;;;6.80;51.10;;;;;;5049914;28;20502;-61
2022/03/10 00:41:24;;;;;;;21.42;14.27;;;6.80;51.50;;;;;;5050145;28;20029;-60
2022/03/10 00:43:49;;;;;;;20.27;13.25;;;6.70;51.20;;;;;;5066453;28;20032;-60
2022/03/10 00:46:15;;;;;;;22.65;14.32;;;6.70;51.50;;;;;;5050768;28;20049;-60
2022/03/10 00:48:41;;;;;;;22.05;13.80;;;6.70;51.60;;;;;;5045692;28;20022;-60
2022/03/10 00:51:07;;;;;;;19.15;13.05;;;6.60;51.90;;;;;;5049034;28;20040;-60
2022/03/10 00:53:34;;;;;;;21.92;14.13;;;6.60;51.80;;;;;;5050921;28;20033;-60
2022/03/10 00:55:59;;;;;;;19.65;13.90;;;6.50;52.10;;;;;;5050060;28;20064;-60
2022/03/10 00:58:25;;;;;;;20.33;13.77;;;6.50;52.10;;;;;;5050546;28;20068;-61
2022/03/10 01:00:51;;;;;;;21.48;14.02;;;6.50;52.40;;;;;;5050483;28;20127;-60
2022/03/10 01:03:18;;;;;;;23.35;14.75;;;6.40;52.30;;;;;;5050859;28;20084;-60
2022/03/10 01:05:44;;;;;;;20.80;13.65;;;6.40;52.60;;;;;;5048612;28;20526;-60
2022/03/10 01:08:10;;;;;;;27.02;14.70;;;6.40;52.40;;;;;;5049973;28;20029;-60
2022/03/10 01:10:35;;;;;;;19.63;13.70;;;6.30;52.70;;;;;;5051267;28;20029;-60
2022/03/10 01:13:01;;;;;;;24.65;14.65;;;6.30;52.90;;;;;;5048923;28;20033;-60
2022/03/10 01:15:28;;;;;;;22.67;13.57;;;6.30;52.80;;;;;;5048622;28;20029;-60
2022/03/10 01:17:55;;;;;;;19.48;13.82;;;6.20;52.80;;;;;;5047736;28;20029;-64
2022/03/10 01:20:24;;;;;;;19.17;13.65;;;6.20;53.10;;;;;;5050104;28;20083;-64
2022/03/10 01:22:50;;;;;;;19.95;14.05;;;6.20;53.20;;;;;;5049664;28;20086;-64
2022/03/10 01:25:18;;;;;;;21.73;14.23;;;6.10;53.30;;;;;;5049214;28;20111;-64
2022/03/10 01:27:44;;;;;;;22.25;14.27;;;6.10;53.60;;;;;;5049574;28;20391;-64
2022/03/10 01:30:10;;;;;;;19.80;13.68;;;6.10;53.60;;;;;;5050165;28;20480;-60
2022/03/10 01:32:36;;;;;;;21.70;13.80;;;6.00;54.10;;;;;;5049880;28;20043;-60
2022/03/10 01:35:03;;;;;;;21.45;13.90;;;6.00;53.50;;;;;;5048558;28;20029;-64
2022/03/10 01:37:29;;;;;;;20.27;14.60;;;6.00;53.80;;;;;;5049943;28;20043;-60
2022/03/10 01:39:56;;;;;;;23.90;14.15;;;5.90;53.70;;;;;;5048017;28;20411;-60
2022/03/10 01:42:25;;;;;;;22.55;14.68;;;5.90;53.80;;;;;;5049463;28;20032;-60
2022/03/10 01:44:55;;;;;;;24.33;14.82;;;5.90;53.90;;;;;;5048423;28;20029;-64
2022/03/10 01:47:22;;;;;;;23.30;14.77;;;5.80;53.90;;;;;;5049769;28;20033;-59
2022/03/10 01:49:47;;;;;;;24.05;15.13;;;5.80;54.20;;;;;;5049688;28;20039;-60
2022/03/10 01:52:15;;;;;;;21.55;14.85;;;5.70;54.10;;;;;;5050142;28;20174;-60
2022/03/10 01:54:41;;;;;;;23.52;15.68;;;5.80;54.20;;;;;;5048924;28;20044;-60
2022/03/10 01:57:07;;;;;;;24.10;15.02;;;5.70;54.40;;;;;;5047698;28;20394;-60
2022/03/10 01:59:33;;;;;;;23.30;14.30;;;5.70;54.70;;;;;;5048416;28;20068;-60
2022/03/10 02:01:59;;;;;;;24.35;13.88;;;5.70;55.20;;;;;;5049635;28;20025;-64
2022/03/10 02:04:25;;;;;;;20.58;13.75;;;5.60;54.50;;;;;;5081056;28;20124;-64
2022/03/10 02:06:52;;;;;;;22.92;15.02;;;5.60;54.70;;;;;;5049577;28;20033;-65
2022/03/10 02:12:05;;;;;;;24.23;15.07;;;5.50;54.60;;;;;;5049184;28;20522;-59
2022/03/10 02:17:22;;;;;;;22.40;14.35;;;5.50;55.00;;;;;;5049690;28;20075;-60
2022/03/10 02:19:49;;;;;;;;;;;5.50;55.30;;;;;;5049889;28;20033;-60
2022/03/10 02:22:14;;;;;;;22.75;14.10;;;5.40;55.50;;;;;;5049501;28;19999;-60
2022/03/10 02:24:42;;;;;;;22.80;14.68;;;5.30;55.40;;;;;;5047388;28;20112;-64
2022/03/10 02:27:22;;;;;;;24.15;14.90;;;5.30;55.70;;;;;;5047634;28;20032;-64
2022/03/10 02:29:58;;;;;;;23.90;14.35;;;5.30;55.90;;;;;;5047720;28;20021;-60
2022/03/10 02:32:24;;;;;;;25.23;15.68;;;5.20;55.80;;;;;;5048947;28;20032;-60
2022/03/10 02:34:50;;;;;;;22.17;14.75;;;5.20;56.10;;;;;;5048333;28;20045;-61
2022/03/10 02:37:17;;;;;;;21.63;14.75;;;5.20;56.00;;;;;;5063250;28;20029;-61
2022/03/10 02:39:45;;;;;;;23.65;14.90;;;5.20;56.30;;;;;;5047421;28;20048;-60
2022/03/10 02:42:12;;;;;;;24.83;15.80;;;5.10;56.10;;;;;;5063670;28;20035;-61
2022/03/10 02:44:43;;;;;;;23.20;15.02;;;5.10;56.20;;;;;;5048096;28;20052;-61
2022/03/10 02:47:09;;;;;;;23.92;14.65;;;5.10;56.20;;;;;;5048604;28;20025;-61
2022/03/10 02:49:35;;;;;;;23.85;15.63;;;5.10;56.30;;;;;;5048684;28;20033;-61
2022/03/10 02:52:03;;;;;;;21.70;14.80;;;5.10;56.40;;;;;;5048572;28;20031;-60
2022/03/10 02:54:29;;;;;;;22.98;15.23;;;5.10;56.50;;;;;;5048356;28;20052;-61
2022/03/10 02:56:55;;;;;;;22.33;14.70;;;5.00;57.10;;;;;;5047935;28;20112;-60
2022/03/10 02:59:21;;;;;;;23.50;15.57;;;5.00;56.50;;;;;;5048466;28;20533;-59
2022/03/10 03:01:46;;;;;;;26.33;16.63;;;5.00;56.40;;;;;;5048073;28;20017;-59
2022/03/10 03:04:12;;;;;;;31.45;15.73;;;5.00;56.40;;;;;;5048168;28;20013;-60
2022/03/10 03:06:38;;;;;;;24.77;15.48;;;5.00;56.40;;;;;;5048313;28;20029;-59
2022/03/10 03:09:03;;;;;;;24.42;16.02;;;4.90;56.70;;;;;;5055747;28;20543;-59
2022/03/10 03:11:29;;;;;;;26.02;15.48;;;4.90;56.70;;;;;;5047743;28;20029;-60
2022/03/10 03:13:56;;;;;;;24.02;15.25;;;4.90;56.90;;;;;;5046518;28;20029;-60
2022/03/10 03:16:24;;;;;;;24.55;15.27;;;4.80;57.10;;;;;;5047799;28;20025;-60
2022/03/10 03:18:50;;;;;;;23.70;15.30;;;4.80;57.30;;;;;;5064110;28;20394;-60
2022/03/10 03:21:16;;;;;;;31.02;16.48;;;4.80;57.40;;;;;;5045796;28;20036;-60
2022/03/10 03:23:42;;;;;;;26.02;15.60;;;4.80;57.50;;;;;;5048135;28;20037;-60
2022/03/10 03:26:07;;;;;;;26.08;16.17;;;4.70;57.50;;;;;;5046755;28;20017;-59
2022/03/10 03:28:33;;;;;;;24.27;15.38;;;4.70;57.60;;;;;;5047637;28;20037;-60
2022/03/10 03:30:58;;;;;;;23.13;14.88;;;4.70;57.60;;;;;;5035879;28;20032;-60
2022/03/10 03:33:24;;;;;;;23.80;15.48;;;4.70;57.80;;;;;;5048238;28;20040;-60
2022/03/10 03:35:50;;;;;;;22.70;14.75;;;4.60;57.90;;;;;;5047038;28;20037;-60
2022/03/10 03:38:15;;;;;;;27.88;15.65;;;4.60;57.90;;;;;;5042644;28;20495;-60
2022/03/10 03:40:41;;;;;;;24.50;15.32;;;4.60;58.00;;;;;;5048421;28;20495;-61
2022/03/10 03:43:07;;;;;;;23.25;14.60;;;4.60;58.00;;;;;;5046246;28;20021;-60
2022/03/10 03:45:32;;;;;;;25.77;16.05;;;4.50;58.20;;;;;;5047862;28;20033;-65
2022/03/10 03:47:58;;;;;;;29.20;15.82;;;4.50;58.10;;;;;;5048048;28;20033;-65
2022/03/10 03:50:24;;;;;;;23.27;14.75;;;4.50;58.10;;;;;;5046882;28;20369;-65
2022/03/10 03:52:49;;;;;;;23.77;15.43;;;4.40;58.10;;;;;;5047690;28;20040;-65
2022/03/10 03:55:15;;;;;;;22.05;14.52;;;4.40;58.40;;;;;;5048176;28;20112;-65
2022/03/10 03:57:41;;;;;;;21.88;14.30;;;4.40;58.30;;;;;;5047618;28;20052;-65
2022/03/10 04:00:09;;;;;;;25.73;15.50;;;4.40;58.30;;;;;;5047953;28;20049;-65
2022/03/10 04:02:36;;;;;;;23.02;15.02;;;4.40;58.40;;;;;;5047922;28;20115;-60
2022/03/10 04:05:03;;;;;;;27.05;15.70;;;4.40;58.40;;;;;;5047823;28;20553;-66
2022/03/10 04:07:29;;;;;;;23.77;15.43;;;4.30;58.50;;;;;;5049217;28;20027;-60
2022/03/10 04:09:55;;;;;;;23.13;14.93;;;4.30;58.50;;;;;;5051266;28;20456;-61
2022/03/10 04:12:20;;;;;;;22.77;14.45;;;4.30;58.50;;;;;;5049508;28;20041;-62
2022/03/10 04:14:46;;;;;;;24.80;15.30;;;4.30;58.50;;;;;;5034986;28;20022;-59
2022/03/10 04:17:11;;;;;;;23.27;15.07;;;4.30;58.60;;;;;;5058323;28;20029;-59
2022/03/10 04:19:37;;;;;;;25.23;15.13;;;4.20;58.60;;;;;;5050488;28;20044;-64
2022/03/10 04:22:03;;;;;;;24.73;16.17;;;4.20;58.60;;;;;;5083232;28;20573;-60
2022/03/10 04:24:29;;;;;;;22.90;15.05;;;4.20;58.70;;;;;;5049303;28;20467;-59
2022/03/10 04:26:55;;;;;;;23.65;15.02;;;4.20;58.80;;;;;;5073900;28;20036;-64
2022/03/10 04:29:20;;;;;;;24.05;14.73;;;4.20;58.60;;;;;;5051565;28;20327;-64
2022/03/10 04:31:46;;;;;;;21.02;14.73;;;4.20;58.70;;;;;;5051143;28;20037;-64
2022/03/10 04:34:12;;;;;;;26.27;15.20;;;4.10;58.40;;;;;;5050831;28;20083;-64
2022/03/10 04:36:37;;;;;;;23.15;14.32;;;4.10;58.50;;;;;;5051195;28;20448;-64
2022/03/10 04:39:04;;;;;;;24.90;14.63;;;4.10;58.60;;;;;;5051067;28;20461;-60
2022/03/10 04:41:30;;;;;;;23.50;14.43;;;4.10;58.70;;;;;;5050690;28;20036;-64
2022/03/10 04:43:56;;;;;;;24.88;15.50;;;4.10;58.70;;;;;;5050400;28;20025;-65
2022/03/10 04:46:22;;;;;;;25.70;16.55;;;4.00;58.70;;;;;;5051428;28;20025;-64
2022/03/10 04:48:49;;;;;;;24.42;15.07;;;4.00;58.90;;;;;;5049327;28;20561;-65
2022/03/10 04:51:14;;;;;;;25.50;15.25;;;4.00;59.00;;;;;;5051600;28;20029;-61
2022/03/10 04:53:40;;;;;;;24.52;15.48;;;4.00;58.80;;;;;;5065826;28;20036;-61
2022/03/10 04:56:06;;;;;;;22.92;14.93;;;4.00;58.90;;;;;;5050846;28;20108;-65
2022/03/10 04:58:32;;;;;;;25.30;15.40;;;3.90;58.90;;;;;;5049024;28;20067;-64
2022/03/10 05:00:58;;;;;;;23.20;14.73;;;3.90;59.20;;;;;;5049991;28;20422;-65
2022/03/10 05:03:23;;;;;;;25.83;15.73;;;3.90;59.20;;;;;;5048793;28;20044;-65
2022/03/10 05:05:49;;;;;;;23.67;14.82;;;3.90;59.20;;;;;;5050293;28;20382;-65
2022/03/10 05:08:15;;;;;;;27.55;16.02;;;3.80;59.20;;;;;;5051366;28;20455;-64
2022/03/10 05:10:41;;;;;;;25.80;15.60;;;3.80;59.30;;;;;;5053974;28;20051;-65
2022/03/10 05:13:07;;;;;;;25.67;16.25;;;3.80;59.50;;;;;;5050091;28;20025;-61
2022/03/10 05:15:33;;;;;;;23.30;15.20;;;3.80;59.70;;;;;;5058511;28;20025;-60
2022/03/10 05:18:04;;;;;;;27.67;17.25;;;3.70;59.70;;;;;;5051394;28;20040;-65
2022/03/10 05:20:30;;;;;;;24.63;15.60;;;3.70;60.40;;;;;;5053861;28;20032;-65
2022/03/10 05:22:59;;;;;;;26.92;16.10;;;3.70;59.90;;;;;;5048848;28;20033;-60
2022/03/10 05:25:30;;;;;;;25.70;15.75;;;3.70;60.00;;;;;;5049718;28;20048;-61
2022/03/10 05:27:56;;;;;;;26.10;15.20;;;3.60;60.00;;;;;;5048121;28;20049;-65
2022/03/10 05:30:22;;;;;;;26.50;15.18;;;3.60;60.00;;;;;;5049714;28;20071;-65
2022/03/10 05:32:48;;;;;;;24.55;14.43;;;3.60;60.00;;;;;;5048713;28;20033;-65
2022/03/10 05:35:15;;;;;;;25.30;16.20;;;3.60;60.00;;;;;;5049087;28;20037;-65
2022/03/10 05:37:43;;;;;;;25.58;14.95;;;3.60;60.20;;;;;;5051355;28;20033;-60
2022/03/10 05:40:11;;;;;;;25.65;15.48;;;3.60;60.40;;;;;;5047077;28;20033;-64
2022/03/10 05:42:41;;;;;;;23.83;14.68;;;3.50;60.40;;;;;;5060221;28;20021;-63
2022/03/10 05:45:07;;;;;;;27.77;16.42;;;3.50;60.60;;;;;;5068227;28;20016;-59
2022/03/10 05:47:34;;;;;;;28.08;16.83;;;3.50;60.80;;;;;;5053549;28;20036;-64
2022/03/10 05:50:01;;;;;;;30.10;15.60;;;3.40;60.90;;;;;;5053674;28;20438;-60
2022/03/10 05:52:26;;;;;;;26.55;16.23;;;3.40;60.90;;;;;;5058695;28;20047;-60
2022/03/10 05:54:52;;;;;;;24.63;14.82;;;3.40;60.90;;;;;;5068616;28;20483;-65
2022/03/10 05:57:18;;;;;;;25.55;15.15;;;3.40;61.00;;;;;;5052428;28;20033;-64
2022/03/10 05:59:43;;;;;;;26.77;15.30;;;3.40;61.00;;;;;;5072745;28;20056;-60
2022/03/10 06:02:09;;;;;;;24.15;14.57;;;3.40;61.10;;;;;;5053390;28;20033;-60
2022/03/10 06:04:35;;;;;;;26.20;15.38;;;3.40;61.10;;;;;;5048263;28;20082;-60
2022/03/10 06:07:00;;;;;;;26.00;16.08;;;3.30;61.20;;;;;;5048083;28;20029;-61
2022/03/10 06:09:26;;;;;;;29.38;16.45;;;3.30;61.30;;;;;;5050101;28;20059;-61
2022/03/10 06:11:52;;;;;;;29.13;14.98;;;3.30;61.50;;;;;;5049219;28;20052;-65
2022/03/10 06:14:18;;;;;;;27.13;15.77;;;3.30;61.60;;;;;;5049063;28;20158;-65
2022/03/10 06:16:44;;;;;;;26.25;16.25;;;3.30;61.60;;;;;;5049542;28;20032;-65
2022/03/10 06:19:10;;;;;;;23.45;15.55;;;3.30;61.60;;;;;;5049496;28;20037;-65
2022/03/10 06:21:38;;;;;;;26.58;14.70;;;3.30;61.70;;;;;;5049353;28;20140;-65
2022/03/10 06:24:04;;;;;;;27.92;16.05;;;3.30;61.70;;;;;;5048856;28;20025;-64
2022/03/10 06:26:30;;;;;;;23.65;14.95;;;3.30;61.70;;;;;;5048886;28;20039;-65
2022/03/10 06:28:56;;;;;;;24.13;14.48;;;3.30;61.70;;;;;;5049724;28;20515;-65
2022/03/10 06:31:24;;;;;;;25.30;15.60;;;3.30;61.50;;;;;;5048920;28;20063;-65
2022/03/10 06:33:51;;;;;;;23.40;15.13;;;3.30;61.50;;;;;;5049218;28;20021;-64
2022/03/10 06:36:17;;;;;;;24.63;14.80;;;3.30;61.70;;;;;;5048707;28;20083;-64
2022/03/10 06:38:43;;;;;;;24.02;14.80;;;3.30;61.50;;;;;;5049110;28;20032;-64
2022/03/10 06:41:09;;;;;;;25.02;15.65;;;3.30;61.70;;;;;;5047320;28;20036;-64
2022/03/10 06:43:34;;;;;;;23.85;14.55;;;3.40;61.80;;;;;;5030726;28;20123;-64
2022/03/10 06:46:00;;;;;;;25.88;15.10;;;3.30;61.50;;;;;;5048214;28;20009;-64
2022/03/10 06:48:26;;;;;;;25.73;15.02;;;3.40;61.80;;;;;;5049162;28;20025;-64
2022/03/10 06:50:52;;;;;;;22.77;13.93;;;3.40;61.80;;;;;;5047564;28;20498;-64
2022/03/10 06:53:18;;;;;;;21.10;12.82;;;3.40;61.90;;;;;;5048382;28;20032;-64
2022/03/10 06:55:43;;;;;;;26.35;14.77;;;3.50;62.00;;;;;;5047924;28;20066;-60
2022/03/10 06:58:09;;;;;;;23.08;14.48;;;3.50;62.00;;;;;;5047539;28;20037;-60
2022/03/10 07:00:35;;;;;;;21.23;13.88;;;3.50;62.00;;;;;;5048291;28;20132;-60
2022/03/10 07:03:00;;;;;;;24.25;14.90;;;3.50;61.90;;;;;;5047180;28;20033;-64
2022/03/10 07:05:26;;;;;;;21.70;13.85;;;3.60;62.00;;;;;;5046694;28;20033;-64
2022/03/10 07:07:52;;;;;;;22.70;13.57;;;3.60;62.00;;;;;;5048024;28;20377;-64
2022/03/10 07:10:18;;;;;;;22.40;14.18;;;3.60;62.00;;;;;;5048458;28;20033;-65
2022/03/10 07:12:43;;;;;;;22.52;13.00;;;3.70;62.10;;;;;;5046615;28;20040;-65
2022/03/10 07:15:11;;;;;;;19.23;11.70;;;3.70;61.90;;;;;;5047633;28;20037;-64
2022/03/10 07:17:38;;;;;;;19.13;12.48;;;3.80;61.70;;;;;;5045980;28;20079;-61
2022/03/10 07:20:05;;;;;;;19.60;12.65;;;3.90;61.60;;;;;;5047420;28;20427;-65
2022/03/10 07:22:31;;;;;;;20.20;11.68;;;3.90;61.60;;;;;;5049043;28;20029;-63
2022/03/10 07:24:56;;;;;;;16.92;11.13;;;4.00;61.40;;;;;;5048044;28;20033;-63
2022/03/10 07:27:22;;;;;;;19.58;11.70;;;4.10;60.90;;;;;;5046746;28;20392;-63
2022/03/10 07:29:48;;;;;;;17.88;10.93;;;4.20;60.50;;;;;;5048610;28;20029;-63
2022/03/10 07:32:14;;;;;;;17.80;11.38;;;4.30;60.20;;;;;;5049377;28;20044;-63
2022/03/10 07:34:39;;;;;;;17.33;10.75;;;4.40;60.00;;;;;;5047773;28;20032;-63
2022/03/10 07:37:05;;;;;;;17.58;11.45;;;4.40;59.70;;;;;;5053341;28;20097;-63
2022/03/10 07:39:31;;;;;;;19.30;12.55;;;4.50;59.40;;;;;;5044896;28;20036;-63
2022/03/10 07:41:57;;;;;;;19.77;12.02;;;4.60;59.00;;;;;;5049041;28;20041;-64
2022/03/10 07:44:23;;;;;;;19.48;11.95;;;4.60;58.80;;;;;;5065272;28;20033;-64
2022/03/10 07:46:49;;;;;;;18.40;11.40;;;4.70;58.60;;;;;;5052824;28;20464;-63
2022/03/10 07:49:14;;;;;;;16.95;11.57;;;4.80;58.40;;;;;;5046625;28;20025;-64
2022/03/10 07:51:42;;;;;;;17.08;11.63;;;4.90;58.20;;;;;;5049876;28;20407;-63
2022/03/10 07:54:08;;;;;;;17.90;11.07;;;4.90;57.90;;;;;;5055627;28;20123;-63
2022/03/10 07:56:34;;;;;;;15.65;10.80;;;5.00;57.70;;;;;;5056216;28;20064;-64
2022/03/10 07:59:00;;;;;;;19.63;12.13;;;5.10;57.50;;;;;;5051300;28;20049;-63
2022/03/10 08:01:26;;;;;;;18.58;12.35;;;5.10;57.20;;;;;;5050535;28;20045;-63
2022/03/10 08:03:52;;;;;;;19.02;11.50;;;5.20;57.00;;;;;;5048024;28;20372;-63
2022/03/10 08:06:18;;;;;;;19.65;12.10;;;5.30;56.90;;;;;;5047475;28;20066;-64
2022/03/10 08:08:44;;;;;;;18.40;11.98;;;5.40;56.70;;;;;;5041875;28;20543;-63
2022/03/10 08:11:10;;;;;;;18.15;11.52;;;5.40;56.40;;;;;;5038467;28;20403;-64
2022/03/10 08:13:36;;;;;;;18.83;12.73;;;5.50;56.30;;;;;;5069440;28;20050;-63
2022/03/10 08:16:02;;;;;;;22.15;11.63;;;5.50;56.00;;;;;;5060992;28;20033;-63
2022/03/10 08:18:28;;;;;;;17.73;11.55;;;5.60;55.80;;;;;;5051083;28;20443;-63
2022/03/10 08:20:56;;;;;;;19.52;12.18;;;5.70;55.70;;;;;;5065147;28;20043;-63
2022/03/10 08:23:21;;;;;;;18.58;11.50;;;5.70;55.30;;;;;;5050493;28;20091;-63
2022/03/10 08:25:47;;;;;;;19.15;11.88;;;5.80;55.20;;;;;;5048557;28;20036;-63
2022/03/10 08:28:13;;;;;;;18.55;12.13;;;5.90;55.00;;;;;;5042771;28;20033;-62
2022/03/10 08:30:39;;;;;;;17.85;12.13;;;5.90;55.00;;;;;;5046575;28;20072;-63
2022/03/10 08:33:05;;;;;;;18.90;12.00;;;6.00;55.00;;;;;;5065912;28;20478;-62
2022/03/10 08:35:32;;;;;;;18.85;12.23;;;6.10;54.70;;;;;;5056014;28;20063;-64
2022/03/10 08:38:00;;;;;;;19.70;12.50;;;6.10;54.60;;;;;;5051300;28;20029;-62
2022/03/10 08:40:26;;;;;;;16.90;11.40;;;6.20;54.50;;;;;;5046745;28;20280;-63
2022/03/10 08:42:52;;;;;;;19.42;12.38;;;6.30;54.40;;;;;;5043779;28;20033;-62
2022/03/10 08:45:19;;;;;;;19.23;12.10;;;6.30;54.20;;;;;;5051330;28;20414;-62
2022/03/10 08:47:45;;;;;;;17.10;11.85;;;6.40;54.20;;;;;;5048155;28;20032;-64
2022/03/10 08:50:11;;;;;;;17.42;11.90;;;6.50;54.20;;;;;;5054541;28;20464;-63
2022/03/10 08:52:38;;;;;;;21.05;12.35;;;6.60;53.90;;;;;;5064032;28;20248;-64
2022/03/10 08:55:05;;;;;;;18.23;12.02;;;6.60;53.80;;;;;;5048599;28;20641;-63
2022/03/10 08:57:32;;;;;;;19.00;13.38;;;6.70;53.60;;;;;;5034217;28;20042;-63
2022/03/10 08:59:58;;;;;;;21.00;14.13;;;6.80;53.50;;;;;;5050078;28;20400;-63
2022/03/10 09:02:24;;;;;;;22.35;14.82;;;6.90;53.30;;;;;;5041573;28;20035;-63
2022/03/10 09:04:50;;;;;;;20.50;13.68;;;7.00;53.10;;;;;;5046234;28;20097;-63
2022/03/10 09:07:16;;;;;;;22.35;15.00;;;7.10;53.10;;;;;;5050150;28;20044;-62
2022/03/10 09:09:42;;;;;;;21.60;14.18;;;7.20;53.00;;;;;;5050062;28;20083;-62
2022/03/10 09:12:08;;;;;;;23.10;14.38;;;7.30;52.70;;;;;;5050104;28;20030;-62
2022/03/10 09:14:34;;;;;;;20.27;13.60;;;7.30;52.70;;;;;;5049884;28;20041;-62
2022/03/10 09:17:00;;;;;;;19.95;13.73;;;7.40;52.60;;;;;;5059261;28;20510;-62
2022/03/10 09:19:28;;;;;;;20.67;13.38;;;7.60;52.70;;;;;;5041712;28;20141;-63
2022/03/10 09:21:54;;;;;;;19.83;13.85;;;7.70;52.60;;;;;;5046034;28;20128;-63
2022/03/10 09:24:20;;;;;;;21.27;13.85;;;7.80;52.60;;;;;;5047679;28;20112;-62
2022/03/10 09:26:46;;;;;;;20.63;13.75;;;7.90;52.50;;;;;;5047819;28;20053;-62
2022/03/10 09:29:15;;;;;;;19.65;13.77;;;8.00;52.40;;;;;;5042913;28;20096;-62
2022/03/10 09:31:40;;;;;;;21.67;14.43;;;8.10;52.40;;;;;;5048833;28;20029;-63
2022/03/10 09:34:06;;;;;;;21.60;14.20;;;8.20;52.20;;;;;;5048651;28;20260;-63
2022/03/10 09:36:32;;;;;;;20.83;13.70;;;8.30;52.10;;;;;;5047889;28;20112;-63
2022/03/10 09:38:57;;;;;;;19.15;12.20;;;8.40;52.10;;;;;;5027635;28;20013;-63
2022/03/10 09:41:24;;;;;;;19.35;12.68;;;8.50;52.00;;;;;;5046475;28;20029;-63
2022/03/10 09:43:50;;;;;;;19.45;13.02;;;8.60;52.00;;;;;;5045762;28;20061;-63
2022/03/10 09:46:16;;;;;;;19.75;13.65;;;8.70;51.90;;;;;;5044676;28;20071;-62
2022/03/10 09:48:42;;;;;;;25.98;15.18;;;8.90;51.70;;;;;;5047517;28;20021;-62
2022/03/10 09:51:10;;;;;;;20.77;15.20;;;9.00;51.40;;;;;;5046035;28;20029;-63
2022/03/10 09:53:36;;;;;;;19.00;13.73;;;9.10;51.40;;;;;;5047024;28;20470;-62
2022/03/10 09:56:03;;;;;;;18.95;13.32;;;9.20;51.30;;;;;;5047712;28;20104;-64
2022/03/10 09:58:31;;;;;;;18.90;13.75;;;9.40;51.40;;;;;;5045582;28;20029;-64
2022/03/10 10:01:07;;;;;;;20.33;13.70;;;9.50;50.90;;;;;;5047931;28;20045;-64
2022/03/10 10:03:33;;;;;;;19.92;13.70;;;9.70;50.70;;;;;;5048602;28;20129;-64
2022/03/10 10:06:03;;;;;;;21.42;14.65;;;9.80;50.50;;;;;;5048521;28;20507;-63
2022/03/10 10:08:34;;;;;;;20.83;14.20;;;9.90;50.10;;;;;;5049315;28;20029;-64
2022/03/10 10:11:01;;;;;;;22.92;14.68;;;9.90;50.50;;;;;;5049246;28;20068;-65
2022/03/10 10:13:27;;;;;;;24.23;16.15;;;10.00;49.60;;;;;;5043551;28;20431;-64
2022/03/10 10:16:04;;;;;;;23.50;15.57;;;10.10;49.10;;;;;;5039694;28;20033;-64
2022/03/10 10:18:31;;;;;;;23.23;16.08;;;10.20;48.60;;;;;;5044623;28;20112;-64
2022/03/10 10:20:57;;;;;;;21.17;15.43;;;10.30;48.30;;;;;;5040772;28;20205;-64
2022/03/10 10:23:25;;;;;;;20.00;13.52;;;10.40;48.50;;;;;;5041150;28;20052;-64
2022/03/10 10:25:58;;;;;;;20.80;14.30;;;10.50;48.50;;;;;;5045727;28;20032;-64
2022/03/10 10:28:29;;;;;;;19.98;13.13;;;10.70;48.30;;;;;;5044515;28;20032;-64
2022/03/10 10:31:07;;;;;;;19.52;13.57;;;10.80;48.30;;;;;;5047594;28;20033;-64
2022/03/10 10:33:34;;;;;;;22.75;14.30;;;11.00;48.00;;;;;;5045177;28;20558;-64
2022/03/10 10:36:24;;;;;;;20.77;13.85;;;11.10;47.90;;;;;;5056896;28;20162;-64
2022/03/10 10:38:54;;;;;;;21.02;14.25;;;11.20;48.00;;;;;;5039945;28;20124;-64
2022/03/10 10:41:39;;;;;;;18.77;13.48;;;11.50;47.90;;;;;;5045165;28;20116;-63
2022/03/10 10:44:12;;;;;;;19.42;13.50;;;11.60;47.70;;;;;;5054471;28;20035;-64
2022/03/10 10:46:45;;;;;;;21.40;15.20;;;11.70;47.70;;;;;;5052476;28;20017;-64
2022/03/10 10:49:16;;;;;;;22.77;14.77;;;11.80;47.00;;;;;;5052557;28;20040;-64
2022/03/10 10:51:44;;;;;;;22.35;14.45;;;11.90;46.60;;;;;;5050400;28;20502;-64
2022/03/10 10:54:23;;;;;;;20.20;14.30;;;12.00;46.30;;;;;;5049326;28;20048;-64
2022/03/10 10:57:01;;;;;;;21.10;14.65;;;12.10;45.90;;;;;;5036020;28;20083;-63
2022/03/10 10:59:43;;;;;;;23.65;16.02;;;12.20;45.90;;;;;;5049711;28;20041;-63
2022/03/10 11:02:21;;;;;;;17.90;13.77;;;12.40;45.80;;;;;;5048761;28;20029;-63
2022/03/10 11:04:52;;;;;;;19.13;14.07;;;12.50;45.50;;;;;;5049574;28;20417;-63
2022/03/10 11:07:19;;;;;;;20.27;15.05;;;12.60;45.40;;;;;;5048949;28;20021;-63
2022/03/10 11:09:47;;;;;;;25.95;16.13;;;12.60;45.10;;;;;;5046898;28;20037;-63
2022/03/10 11:12:16;;;;;;;23.10;15.60;;;12.70;44.70;;;;;;5048594;28;20538;-63
2022/03/10 11:14:44;;;;;;;26.15;15.85;;;12.80;44.60;;;;;;5048674;28;20130;-64
2022/03/10 11:17:12;;;;;;;22.90;15.70;;;13.00;44.30;;;;;;5051851;28;20020;-64
2022/03/10 11:19:49;;;;;;;19.75;14.32;;;13.10;44.40;;;;;;5053193;28;20435;-63
2022/03/10 11:23:00;;;;;;;17.02;12.70;;;13.20;44.40;;;;;;5050516;28;20659;-62
2022/03/10 11:25:38;;;;;;;21.77;15.00;;;13.40;44.30;;;;;;5050371;28;20107;-62
2022/03/10 11:28:11;;;;;;;21.35;14.85;;;13.60;43.60;;;;;;5062786;28;20594;-64
2022/03/10 11:30:38;;;;;;;21.33;15.57;;;13.70;43.10;;;;;;5051871;28;20511;-63
2022/03/10 11:33:34;;;;;;;20.48;15.02;;;13.80;43.20;;;;;;5051958;28;20081;-63
2022/03/10 11:36:01;;;;;;;20.58;15.18;;;13.90;43.00;;;;;;5052290;28;20534;-63
2022/03/10 11:38:53;;;;;;;23.08;15.70;;;14.10;42.60;;;;;;5051957;28;20120;-67
2022/03/10 11:54:06;;;;;;;21.40;15.00;;;14.10;41.30;;;;;;5125214;27;20124;-58
2022/03/10 11:56:45;;;;;;;24.63;15.68;;;14.00;42.70;;;;;;5124046;28;20023;-59
2022/03/10 11:59:37;;;;;;;24.65;16.13;;;14.00;42.40;;;;;;5124059;28;20039;-59
2022/03/10 12:02:04;;;;;;;20.20;15.35;;;14.20;41.80;;;;;;5121989;28;20145;-59
2022/03/10 12:04:40;;;;;;;21.45;14.80;;;14.30;42.10;;;;;;5104797;28;20038;-59
2022/03/10 12:07:14;;;;;;;21.30;14.77;;;14.50;41.20;;;;;;5105919;28;20355;-58
2022/03/10 12:09:41;;;;;;;21.98;16.35;;;14.70;41.20;;;;;;5121752;28;20019;-58
2022/03/10 12:12:27;;;;;;;21.48;15.68;;;14.80;40.20;;;;;;5105123;28;20032;-60
2022/03/10 12:14:56;;;;;;;20.40;14.65;;;14.90;40.50;;;;;;5106266;28;20032;-60
2022/03/10 12:17:45;;;;;;;23.13;15.65;;;15.10;40.00;;;;;;5107096;28;20032;-60
2022/03/10 12:20:14;;;;;;;21.75;15.52;;;15.20;39.60;;;;;;5117985;28;20035;-60
2022/03/10 12:22:40;;;;;;;21.63;15.63;;;15.30;39.40;;;;;;5123868;28;20038;-60
2022/03/10 12:25:22;;;;;;;24.02;17.27;;;15.40;38.80;;;;;;5095031;28;20047;-62
2022/03/10 12:27:52;;;;;;;21.90;14.98;;;15.50;38.70;;;;;;5104396;28;20054;-63
2022/03/10 12:30:27;;;;;;;22.90;15.75;;;15.60;38.50;;;;;;5096501;28;20386;-62
2022/03/10 12:32:55;;;;;;;22.67;16.02;;;15.80;37.80;;;;;;5119141;28;20055;-63
2022/03/10 12:35:30;;;;;;;18.17;13.75;;;15.90;37.80;;;;;;5097945;28;20024;-64
2022/03/10 12:37:56;;;;;;;20.95;16.58;;;16.00;37.80;;;;;;5091954;28;20036;-62
2022/03/10 12:40:28;;;;;;;26.05;16.08;;;16.10;37.30;;;;;;5115476;28;20024;-63
2022/03/10 12:43:25;;;;;;;21.42;16.08;;;16.10;36.90;;;;;;5087151;28;20746;-63
2022/03/10 12:45:52;;;;;;;20.83;14.85;;;16.20;37.10;;;;;;5086507;28;20047;-65
2022/03/10 12:48:44;;;;;;;24.10;16.65;;;16.30;36.90;;;;;;5108404;28;20015;-65
2022/03/10 12:51:24;;;;;;;21.10;14.85;;;16.30;37.00;;;;;;5104267;28;20027;-66
2022/03/10 12:53:54;;;;;;;21.90;14.90;;;16.40;36.40;;;;;;5091433;28;20079;-64
2022/03/10 12:56:20;;;;;;;19.98;13.85;;;16.50;36.20;;;;;;5106429;28;20119;-63